sensor_id;sensor_type;location;lat;lon;timestamp;pressure;altitude;pressure_sealevel;temperature;humidity
52797;BME280;38666;43.348;12.584;2023-02-17T06:54:03;97068.97;;;6.18;74.85
52797;BME280;38666;43.348;12.584;2023-02-17T06:56:29;97059.84;;;6.23;74.13
52797;BME280;38666;43.348;12.584;2023-02-17T06:58:54;97067.06;;;6.31;73.93
52797;BME280;38666;43.348;12.584;2023-02-17T07:01:23;97064.50;;;6.47;72.85
52797;BME280;38666;43.348;12.584;2023-02-17T07:03:53;97077.72;;;6.49;70.28
52797;BME280;38666;43.348;12.584;2023-02-17T07:06:19;97069.13;;;6.59;70.00
52797;BME280;38666;43.348;12.584;2023-02-17T07:08:45;97067.66;;;6.74;70.16
52797;BME280;38666;43.348;12.584;2023-02-17T07:11:12;97072.06;;;6.92;69.62
52797;BME280;38666;43.348;12.584;2023-02-17T07:13:39;97067.06;;;7.06;68.72
52797;BME280;38666;43.348;12.584;2023-02-17T07:16:09;97073.59;;;7.18;67.22
52797;BME280;38666;43.348;12.584;2023-02-17T07:18:35;97070.44;;;7.16;66.93
52797;BME280;38666;43.348;12.584;2023-02-17T07:21:03;97076.31;;;7.05;66.68
52797;BME280;38666;43.348;12.584;2023-02-17T07:23:29;97086.09;;;6.94;67.05
52797;BME280;38666;43.348;12.584;2023-02-17T07:25:55;97078.63;;;7.03;66.89
52797;BME280;38666;43.348;12.584;2023-02-17T07:28:20;97076.75;;;7.20;66.77
52797;BME280;38666;43.348;12.584;2023-02-17T07:30:46;97081.28;;;7.28;66.03
52797;BME280;38666;43.348;12.584;2023-02-17T07:33:11;97080.38;;;7.24;64.70
52797;BME280;38666;43.348;12.584;2023-02-17T07:35:43;97077.81;;;7.03;65.34
52797;BME280;38666;43.348;12.584;2023-02-17T07:38:09;97082.22;;;6.95;65.91
52797;BME280;38666;43.348;12.584;2023-02-17T07:40:35;97084.94;;;7.07;66.01
52797;BME280;38666;43.348;12.584;2023-02-17T07:43:01;97082.88;;;7.17;65.52
52797;BME280;38666;43.348;12.584;2023-02-17T07:45:26;97090.59;;;7.02;65.70
52797;BME280;38666;43.348;12.584;2023-02-17T07:47:52;97090.81;;;6.97;67.02
52797;BME280;38666;43.348;12.584;2023-02-17T07:50:17;97081.22;;;7.12;66.47
52797;BME280;38666;43.348;12.584;2023-02-17T07:52:43;97072.75;;;6.89;68.45
52797;BME280;38666;43.348;12.584;2023-02-17T07:55:09;97070.47;;;6.91;67.83
52797;BME280;38666;43.348;12.584;2023-02-17T07:57:34;97083.03;;;6.95;68.01
52797;BME280;38666;43.348;12.584;2023-02-17T08:00:00;97073.84;;;7.00;67.94
52797;BME280;38666;43.348;12.584;2023-02-17T08:02:25;97078.56;;;7.28;68.18
52797;BME280;38666;43.348;12.584;2023-02-17T08:04:51;97088.94;;;7.51;67.11
52797;BME280;38666;43.348;12.584;2023-02-17T08:07:17;97086.72;;;7.57;66.05
52797;BME280;38666;43.348;12.584;2023-02-17T08:09:43;97088.38;;;7.74;65.18
52797;BME280;38666;43.348;12.584;2023-02-17T08:12:27;97097.00;;;7.76;64.39
52797;BME280;38666;43.348;12.584;2023-02-17T08:15:11;97090.53;;;7.40;64.66
52797;BME280;38666;43.348;12.584;2023-02-17T08:17:37;97094.94;;;7.32;66.17
52797;BME280;38666;43.348;12.584;2023-02-17T08:20:02;97086.00;;;7.44;65.60
52797;BME280;38666;43.348;12.584;2023-02-17T08:22:28;97084.53;;;7.75;63.97
52797;BME280;38666;43.348;12.584;2023-02-17T08:24:53;97093.31;;;7.85;62.67
52797;BME280;38666;43.348;12.584;2023-02-17T08:27:19;97086.78;;;7.73;63.09
52797;BME280;38666;43.348;12.584;2023-02-17T08:29:45;97091.25;;;7.94;62.54
52797;BME280;38666;43.348;12.584;2023-02-17T08:32:12;97086.88;;;8.05;63.22
52797;BME280;38666;43.348;12.584;2023-02-17T08:34:38;97084.00;;;8.14;61.64
52797;BME280;38666;43.348;12.584;2023-02-17T08:37:05;97096.72;;;8.26;62.25
52797;BME280;38666;43.348;12.584;2023-02-17T08:39:32;97102.16;;;8.26;61.98
52797;BME280;38666;43.348;12.584;2023-02-17T08:41:58;97101.84;;;8.44;61.34
52797;BME280;38666;43.348;12.584;2023-02-17T08:44:23;97117.88;;;8.62;59.98
52797;BME280;38666;43.348;12.584;2023-02-17T08:46:50;97112.56;;;8.37;60.44
52797;BME280;38666;43.348;12.584;2023-02-17T08:49:21;97101.34;;;8.54;60.73
52797;BME280;38666;43.348;12.584;2023-02-17T08:51:47;97106.72;;;8.83;60.16
52797;BME280;38666;43.348;12.584;2023-02-17T08:54:13;97105.75;;;8.75;59.14
52797;BME280;38666;43.348;12.584;2023-02-17T08:56:39;97106.84;;;8.42;60.51
52797;BME280;38666;43.348;12.584;2023-02-17T08:59:07;97102.56;;;8.57;60.02
52797;BME280;38666;43.348;12.584;2023-02-17T09:01:33;97111.00;;;8.84;59.87
52797;BME280;38666;43.348;12.584;2023-02-17T09:03:59;97106.38;;;9.05;59.23
52797;BME280;38666;43.348;12.584;2023-02-17T09:06:43;97113.38;;;8.70;60.00
52797;BME280;38666;43.348;12.584;2023-02-17T09:09:11;97115.88;;;8.46;60.71
52797;BME280;38666;43.348;12.584;2023-02-17T09:11:38;97118.03;;;8.69;61.45
52797;BME280;38666;43.348;12.584;2023-02-17T09:14:04;97129.78;;;9.06;58.59
52797;BME280;38666;43.348;12.584;2023-02-17T09:16:30;97121.25;;;9.07;58.90
52797;BME280;38666;43.348;12.584;2023-02-17T09:18:56;97125.47;;;9.05;57.93
52797;BME280;38666;43.348;12.584;2023-02-17T09:21:21;97136.53;;;9.12;58.91
52797;BME280;38666;43.348;12.584;2023-02-17T09:23:47;97132.44;;;9.02;58.25
52797;BME280;38666;43.348;12.584;2023-02-17T09:26:14;97130.59;;;9.06;58.22
52797;BME280;38666;43.348;12.584;2023-02-17T09:28:41;97125.22;;;9.10;57.15
52797;BME280;38666;43.348;12.584;2023-02-17T09:31:08;97122.91;;;9.12;56.55
52797;BME280;38666;43.348;12.584;2023-02-17T09:33:34;97116.81;;;8.83;58.27
52797;BME280;38666;43.348;12.584;2023-02-17T09:36:00;97119.13;;;9.17;56.95
52797;BME280;38666;43.348;12.584;2023-02-17T09:38:26;97117.84;;;8.94;57.62
52797;BME280;38666;43.348;12.584;2023-02-17T09:40:51;97120.16;;;8.92;57.56
52797;BME280;38666;43.348;12.584;2023-02-17T09:43:28;97117.72;;;9.07;57.37
52797;BME280;38666;43.348;12.584;2023-02-17T09:46:04;97120.16;;;9.28;55.06
52797;BME280;38666;43.348;12.584;2023-02-17T09:48:33;97134.59;;;9.29;55.14
52797;BME280;38666;43.348;12.584;2023-02-17T09:51:13;97124.31;;;9.22;55.21
52797;BME280;38666;43.348;12.584;2023-02-17T09:54:05;97131.59;;;9.18;55.43
52797;BME280;38666;43.348;12.584;2023-02-17T09:56:37;97124.66;;;9.20;55.01
52797;BME280;38666;43.348;12.584;2023-02-17T09:59:28;97124.47;;;9.29;54.25
52797;BME280;38666;43.348;12.584;2023-02-17T10:01:57;97124.13;;;9.31;53.26
52797;BME280;38666;43.348;12.584;2023-02-17T10:04:36;97125.25;;;9.30;54.06
52797;BME280;38666;43.348;12.584;2023-02-17T10:07:12;97129.84;;;9.25;53.68
52797;BME280;38666;43.348;12.584;2023-02-17T10:09:52;97109.56;;;9.07;53.98
52797;BME280;38666;43.348;12.584;2023-02-17T10:12:24;97125.75;;;8.99;55.37
52797;BME280;38666;43.348;12.584;2023-02-17T10:14:54;97122.38;;;9.22;54.15
52797;BME280;38666;43.348;12.584;2023-02-17T10:20:18;97118.81;;;9.38;53.25
52797;BME280;38666;43.348;12.584;2023-02-17T10:22:50;97107.75;;;9.31;53.09
52797;BME280;38666;43.348;12.584;2023-02-17T10:25:21;97114.22;;;9.42;53.92
52797;BME280;38666;43.348;12.584;2023-02-17T10:31:10;97111.56;;;9.46;53.63
52797;BME280;38666;43.348;12.584;2023-02-17T10:33:36;97117.06;;;9.30;53.85
52797;BME280;38666;43.348;12.584;2023-02-17T10:38:51;97114.97;;;9.23;54.55
52797;BME280;38666;43.348;12.584;2023-02-17T10:41:25;97120.94;;;9.29;53.85
52797;BME280;38666;43.348;12.584;2023-02-17T10:43:51;97106.41;;;9.41;54.00
52797;BME280;38666;43.348;12.584;2023-02-17T10:46:24;97103.31;;;9.22;54.51
52797;BME280;38666;43.348;12.584;2023-02-17T10:48:53;97109.63;;;9.46;53.73
52797;BME280;38666;43.348;12.584;2023-02-17T10:51:25;97102.47;;;9.38;54.27
52797;BME280;38666;43.348;12.584;2023-02-17T10:54:07;97106.47;;;9.44;53.96
52797;BME280;38666;43.348;12.584;2023-02-17T10:56:43;97102.19;;;9.63;53.23
52797;BME280;38666;43.348;12.584;2023-02-17T11:01:43;97094.84;;;9.47;52.77
52797;BME280;38666;43.348;12.584;2023-02-17T11:04:10;97083.31;;;9.54;53.35
52797;BME280;38666;43.348;12.584;2023-02-17T11:06:53;97087.75;;;9.43;54.40
52797;BME280;38666;43.348;12.584;2023-02-17T11:09:27;97086.53;;;9.60;53.84
52797;BME280;38666;43.348;12.584;2023-02-17T11:12:12;97085.53;;;9.88;51.96
52797;BME280;38666;43.348;12.584;2023-02-17T11:14:44;97089.47;;;9.91;51.43
52797;BME280;38666;43.348;12.584;2023-02-17T11:19:58;97088.22;;;10.08;51.66
52797;BME280;38666;43.348;12.584;2023-02-17T11:25:00;97077.78;;;9.70;52.20
52797;BME280;38666;43.348;12.584;2023-02-17T11:27:27;97071.47;;;9.46;53.13
52797;BME280;38666;43.348;12.584;2023-02-17T11:30:04;97081.50;;;9.82;53.21
52797;BME280;38666;43.348;12.584;2023-02-17T11:32:30;97073.16;;;9.94;52.56
52797;BME280;38666;43.348;12.584;2023-02-17T11:35:00;97068.59;;;9.79;53.48
52797;BME280;38666;43.348;12.584;2023-02-17T11:37:29;97073.84;;;9.68;53.01
52797;BME280;38666;43.348;12.584;2023-02-17T11:39:56;97074.63;;;9.68;53.40
52797;BME280;38666;43.348;12.584;2023-02-17T11:42:30;97071.09;;;9.87;52.39
52797;BME280;38666;43.348;12.584;2023-02-17T11:44:58;97069.91;;;10.08;52.07
52797;BME280;38666;43.348;12.584;2023-02-17T11:49:59;97063.88;;;9.99;51.93
52797;BME280;38666;43.348;12.584;2023-02-17T11:52:54;97059.88;;;9.93;52.53
52797;BME280;38666;43.348;12.584;2023-02-17T11:58:19;97064.28;;;10.21;51.75
52797;BME280;38666;43.348;12.584;2023-02-17T12:06:35;97052.03;;;10.34;51.51
52797;BME280;38666;43.348;12.584;2023-02-17T12:26:35;97057.53;;;9.91;52.13
52797;BME280;38666;43.348;12.584;2023-02-17T12:32:32;97050.25;;;10.22;51.31
52797;BME280;38666;43.348;12.584;2023-02-17T12:35:03;97057.97;;;9.73;53.41
52797;BME280;38666;43.348;12.584;2023-02-17T12:37:45;97050.81;;;9.65;53.43
52797;BME280;38666;43.348;12.584;2023-02-17T12:40:31;97047.06;;;9.73;53.05
52797;BME280;38666;43.348;12.584;2023-02-17T12:43:02;97050.66;;;10.01;53.13
52797;BME280;38666;43.348;12.584;2023-02-17T12:45:42;97036.34;;;9.84;53.44
52797;BME280;38666;43.348;12.584;2023-02-17T12:51:25;97022.13;;;11.23;49.87
52797;BME280;38666;43.348;12.584;2023-02-17T12:56:44;97021.06;;;12.49;45.09
52797;BME280;38666;43.348;12.584;2023-02-17T12:59:18;97020.56;;;12.36;45.40
52797;BME280;38666;43.348;12.584;2023-02-17T13:02:00;97020.50;;;11.87;46.31
52797;BME280;38666;43.348;12.584;2023-02-17T13:04:28;97028.22;;;11.78;46.51
52797;BME280;38666;43.348;12.584;2023-02-17T13:07:13;97026.91;;;12.06;46.12
52797;BME280;38666;43.348;12.584;2023-02-17T13:09:42;97016.81;;;12.10;45.54
52797;BME280;38666;43.348;12.584;2023-02-17T13:14:38;97005.22;;;12.24;45.96
52797;BME280;38666;43.348;12.584;2023-02-17T13:17:04;97004.28;;;12.58;45.07
52797;BME280;38666;43.348;12.584;2023-02-17T13:19:33;97008.66;;;12.67;45.48
52797;BME280;38666;43.348;12.584;2023-02-17T13:21:59;96996.03;;;12.51;45.02
52797;BME280;38666;43.348;12.584;2023-02-17T13:26:54;96989.66;;;12.99;44.18
52797;BME280;38666;43.348;12.584;2023-02-17T13:31:55;96984.56;;;12.98;44.40
52797;BME280;38666;43.348;12.584;2023-02-17T13:34:44;96983.81;;;11.96;46.57
52797;BME280;38666;43.348;12.584;2023-02-17T13:37:37;96991.34;;;11.64;47.41
52797;BME280;38666;43.348;12.584;2023-02-17T13:42:53;96990.09;;;10.93;49.96
52797;BME280;38666;43.348;12.584;2023-02-17T13:47:48;96998.16;;;10.82;50.11
52797;BME280;38666;43.348;12.584;2023-02-17T13:50:33;97002.34;;;10.49;50.67
52797;BME280;38666;43.348;12.584;2023-02-17T13:53:02;97005.00;;;10.68;51.01
52797;BME280;38666;43.348;12.584;2023-02-17T13:55:27;96990.25;;;10.50;50.88
52797;BME280;38666;43.348;12.584;2023-02-17T13:57:57;96993.88;;;11.15;49.79
52797;BME280;38666;43.348;12.584;2023-02-17T14:00:29;96983.03;;;10.61;51.19
52797;BME280;38666;43.348;12.584;2023-02-17T14:05:43;96981.50;;;10.64;52.00
52797;BME280;38666;43.348;12.584;2023-02-17T14:10:44;96977.78;;;10.79;51.04
52797;BME280;38666;43.348;12.584;2023-02-17T14:13:11;96986.53;;;10.38;52.20
52797;BME280;38666;43.348;12.584;2023-02-17T14:15:37;96977.84;;;10.29;52.77
52797;BME280;38666;43.348;12.584;2023-02-17T14:18:14;96979.13;;;10.62;52.21
52797;BME280;38666;43.348;12.584;2023-02-17T14:20:40;96979.66;;;9.97;52.89
52797;BME280;38666;43.348;12.584;2023-02-17T14:23:12;96971.09;;;9.99;52.64
52797;BME280;38666;43.348;12.584;2023-02-17T14:25:43;96975.28;;;10.40;52.49
52797;BME280;38666;43.348;12.584;2023-02-17T14:28:24;96975.44;;;10.78;51.88
52797;BME280;38666;43.348;12.584;2023-02-17T14:30:50;96967.94;;;11.02;50.53
52797;BME280;38666;43.348;12.584;2023-02-17T14:33:22;96968.03;;;11.09;50.04
52797;BME280;38666;43.348;12.584;2023-02-17T14:36:02;96974.97;;;11.03;50.08
52797;BME280;38666;43.348;12.584;2023-02-17T14:38:36;96971.13;;;10.50;50.99
52797;BME280;38666;43.348;12.584;2023-02-17T14:41:04;96966.31;;;10.66;51.61
52797;BME280;38666;43.348;12.584;2023-02-17T14:43:29;96976.47;;;10.97;50.27
52797;BME280;38666;43.348;12.584;2023-02-17T14:45:55;96976.56;;;9.99;53.03
52797;BME280;38666;43.348;12.584;2023-02-17T14:48:21;96974.38;;;10.32;52.41
52797;BME280;38666;43.348;12.584;2023-02-17T14:50:46;96980.06;;;10.23;52.70
52797;BME280;38666;43.348;12.584;2023-02-17T14:58:38;96962.97;;;10.26;52.61
52797;BME280;38666;43.348;12.584;2023-02-17T15:01:04;96964.13;;;10.49;51.95
52797;BME280;38666;43.348;12.584;2023-02-17T15:03:30;96969.94;;;10.23;52.36
52797;BME280;38666;43.348;12.584;2023-02-17T15:05:56;96973.19;;;10.33;52.77
52797;BME280;38666;43.348;12.584;2023-02-17T15:08:33;96962.06;;;10.18;52.90
52797;BME280;38666;43.348;12.584;2023-02-17T15:10:59;96962.38;;;10.40;52.46
52797;BME280;38666;43.348;12.584;2023-02-17T15:13:25;96969.50;;;10.45;52.17
52797;BME280;38666;43.348;12.584;2023-02-17T15:15:51;96962.53;;;10.47;51.85
52797;BME280;38666;43.348;12.584;2023-02-17T15:18:18;96966.59;;;10.34;52.69
52797;BME280;38666;43.348;12.584;2023-02-17T15:20:46;96977.41;;;10.03;53.66
52797;BME280;38666;43.348;12.584;2023-02-17T15:23:18;96965.25;;;10.24;53.37
52797;BME280;38666;43.348;12.584;2023-02-17T15:25:46;96973.06;;;10.49;52.65
52797;BME280;38666;43.348;12.584;2023-02-17T15:28:13;96971.56;;;10.79;51.90
52797;BME280;38666;43.348;12.584;2023-02-17T15:30:39;96969.97;;;10.78;51.47
52797;BME280;38666;43.348;12.584;2023-02-17T15:33:12;96978.59;;;10.80;51.54
52797;BME280;38666;43.348;12.584;2023-02-17T15:35:38;96966.41;;;10.46;52.97
52797;BME280;38666;43.348;12.584;2023-02-17T15:38:04;96975.31;;;10.43;53.40
52797;BME280;38666;43.348;12.584;2023-02-17T15:40:29;96964.00;;;9.94;54.39
52797;BME280;38666;43.348;12.584;2023-02-17T15:42:56;96959.53;;;9.82;55.27
52797;BME280;38666;43.348;12.584;2023-02-17T15:45:25;96963.00;;;9.79;55.80
52797;BME280;38666;43.348;12.584;2023-02-17T15:48:01;96972.97;;;9.71;56.11
52797;BME280;38666;43.348;12.584;2023-02-17T15:50:28;96975.94;;;9.62;56.16
52797;BME280;38666;43.348;12.584;2023-02-17T15:52:53;96974.47;;;9.45;57.04
52797;BME280;38666;43.348;12.584;2023-02-17T15:55:20;96969.84;;;9.49;56.83
52797;BME280;38666;43.348;12.584;2023-02-17T15:57:53;96966.06;;;9.34;57.19
52797;BME280;38666;43.348;12.584;2023-02-17T16:02:47;96983.22;;;9.35;57.41
52797;BME280;38666;43.348;12.584;2023-02-17T16:05:15;96976.41;;;9.25;57.89
52797;BME280;38666;43.348;12.584;2023-02-17T16:07:41;96975.88;;;9.19;58.54
52797;BME280;38666;43.348;12.584;2023-02-17T16:10:08;96976.03;;;9.26;58.51
52797;BME280;38666;43.348;12.584;2023-02-17T16:12:34;96980.91;;;9.37;57.64
52797;BME280;38666;43.348;12.584;2023-02-17T16:14:59;96987.88;;;9.14;58.79
52797;BME280;38666;43.348;12.584;2023-02-17T16:17:25;96985.28;;;9.02;59.37
52797;BME280;38666;43.348;12.584;2023-02-17T16:19:51;96976.03;;;9.07;59.56
52797;BME280;38666;43.348;12.584;2023-02-17T16:22:17;96979.63;;;9.11;58.71
52797;BME280;38666;43.348;12.584;2023-02-17T16:24:42;96981.03;;;9.05;59.31
52797;BME280;38666;43.348;12.584;2023-02-17T16:27:11;96979.91;;;9.06;59.12
52797;BME280;38666;43.348;12.584;2023-02-17T16:29:39;96994.41;;;9.10;59.38
52797;BME280;38666;43.348;12.584;2023-02-17T16:32:04;96991.47;;;9.19;59.10
52797;BME280;38666;43.348;12.584;2023-02-17T16:34:30;96984.00;;;9.15;58.89
52797;BME280;38666;43.348;12.584;2023-02-17T16:37:00;96990.66;;;8.98;59.36
52797;BME280;38666;43.348;12.584;2023-02-17T16:39:27;96993.47;;;9.02;60.21
52797;BME280;38666;43.348;12.584;2023-02-17T16:41:52;96988.00;;;9.02;59.93
52797;BME280;38666;43.348;12.584;2023-02-17T16:44:20;96988.38;;;9.00;59.79
52797;BME280;38666;43.348;12.584;2023-02-17T16:46:53;96992.66;;;9.01;59.30
52797;BME280;38666;43.348;12.584;2023-02-17T16:49:28;96991.38;;;8.95;59.54
52797;BME280;38666;43.348;12.584;2023-02-17T16:52:19;96995.78;;;8.84;60.15
52797;BME280;38666;43.348;12.584;2023-02-17T16:54:46;96996.78;;;8.75;60.50
52797;BME280;38666;43.348;12.584;2023-02-17T16:57:15;96994.19;;;8.63;61.25
52797;BME280;38666;43.348;12.584;2023-02-17T16:59:42;96990.13;;;8.57;61.03
52797;BME280;38666;43.348;12.584;2023-02-17T17:02:10;96987.06;;;8.42;61.93
52797;BME280;38666;43.348;12.584;2023-02-17T17:04:35;96993.38;;;8.30;62.59
52797;BME280;38666;43.348;12.584;2023-02-17T17:07:01;96993.47;;;8.17;63.15
52797;BME280;38666;43.348;12.584;2023-02-17T17:09:26;96994.47;;;8.09;63.80
52797;BME280;38666;43.348;12.584;2023-02-17T17:11:53;96995.88;;;8.03;64.18
52797;BME280;38666;43.348;12.584;2023-02-17T17:14:18;96999.44;;;7.91;64.91
52797;BME280;38666;43.348;12.584;2023-02-17T17:16:50;97008.75;;;7.90;64.80
52797;BME280;38666;43.348;12.584;2023-02-17T17:19:15;97012.19;;;7.87;65.06
52797;BME280;38666;43.348;12.584;2023-02-17T17:21:41;97006.66;;;7.83;65.55
52797;BME280;38666;43.348;12.584;2023-02-17T17:24:06;97004.94;;;7.78;65.43
52797;BME280;38666;43.348;12.584;2023-02-17T17:26:40;97014.16;;;7.74;65.38
52797;BME280;38666;43.348;12.584;2023-02-17T17:29:11;97012.06;;;7.67;65.93
52797;BME280;38666;43.348;12.584;2023-02-17T17:31:38;97013.00;;;7.58;67.21
52797;BME280;38666;43.348;12.584;2023-02-17T17:34:03;97021.63;;;7.48;67.84
52797;BME280;38666;43.348;12.584;2023-02-17T17:36:32;97017.59;;;7.42;67.54
52797;BME280;38666;43.348;12.584;2023-02-17T17:38:59;97024.41;;;7.35;67.54
52797;BME280;38666;43.348;12.584;2023-02-17T17:41:26;97023.06;;;7.29;68.08
52797;BME280;38666;43.348;12.584;2023-02-17T17:43:53;97025.34;;;7.27;68.05
52797;BME280;38666;43.348;12.584;2023-02-17T17:46:24;97021.06;;;7.26;68.39
52797;BME280;38666;43.348;12.584;2023-02-17T17:48:50;97024.88;;;7.25;68.14
52797;BME280;38666;43.348;12.584;2023-02-17T17:51:19;97033.75;;;7.22;68.61
52797;BME280;38666;43.348;12.584;2023-02-17T17:53:45;97023.31;;;7.24;67.57
52797;BME280;38666;43.348;12.584;2023-02-17T17:56:40;97031.97;;;7.14;68.54
52797;BME280;38666;43.348;12.584;2023-02-17T17:59:10;97026.56;;;7.01;68.78
52797;BME280;38666;43.348;12.584;2023-02-17T18:01:36;97023.97;;;6.92;69.38
52797;BME280;38666;43.348;12.584;2023-02-17T18:04:03;97025.44;;;6.90;69.55
52797;BME280;38666;43.348;12.584;2023-02-17T18:06:53;97036.97;;;6.86;70.21
52797;BME280;38666;43.348;12.584;2023-02-17T18:09:26;97025.91;;;6.79;70.31
52797;BME280;38666;43.348;12.584;2023-02-17T18:11:52;97036.75;;;6.79;70.53
52797;BME280;38666;43.348;12.584;2023-02-17T18:14:19;97038.56;;;6.75;70.42
52797;BME280;38666;43.348;12.584;2023-02-17T18:16:46;97044.34;;;6.73;70.86
52797;BME280;38666;43.348;12.584;2023-02-17T18:19:13;97040.63;;;6.66;71.08
52797;BME280;38666;43.348;12.584;2023-02-17T18:21:39;97029.19;;;6.60;71.06
52797;BME280;38666;43.348;12.584;2023-02-17T18:24:05;97031.56;;;6.61;71.82
52797;BME280;38666;43.348;12.584;2023-02-17T18:26:32;97029.09;;;6.56;71.57
52797;BME280;38666;43.348;12.584;2023-02-17T18:28:58;97034.53;;;6.56;72.18
52797;BME280;38666;43.348;12.584;2023-02-17T18:31:23;97026.59;;;6.51;72.36
52797;BME280;38666;43.348;12.584;2023-02-17T18:33:50;97036.78;;;6.54;72.10
52797;BME280;38666;43.348;12.584;2023-02-17T18:36:20;97038.25;;;6.52;72.36
52797;BME280;38666;43.348;12.584;2023-02-17T18:38:46;97041.28;;;6.50;72.08
52797;BME280;38666;43.348;12.584;2023-02-17T18:41:17;97039.94;;;6.44;73.17
52797;BME280;38666;43.348;12.584;2023-02-17T18:43:43;97031.81;;;6.44;72.91
52797;BME280;38666;43.348;12.584;2023-02-17T18:46:08;97030.78;;;6.36;73.09
52797;BME280;38666;43.348;12.584;2023-02-17T18:48:34;97031.47;;;6.33;73.43
52797;BME280;38666;43.348;12.584;2023-02-17T18:51:07;97036.31;;;6.27;73.52
